Time;durP1;ratioP1;P1;durP2;ratioP2;P2;SDS_P1;SDS_P2;PMS_P1;PMS_P2;Temp;Humidity;BMP_temperature;BMP_pressure;BME280_temperature;BME280_humidity;BME280_pressure;Samples;Min_cycle;Max_cycle;Signal;HPM_P1;HPM_P2
2022/10/12 00:04:29;;;;;;;21.47;11.27;;;;;4.30;101923.00;;;;10432538;28;20275;-75
2022/10/12 00:09:30;;;;;;;22.10;10.60;;;;;4.30;101919.00;;;;10434198;28;20715;-75
2022/10/12 00:14:35;;;;;;;17.87;10.10;;;;;4.20;101917.00;;;;10446312;28;20213;-75
2022/10/12 00:19:37;;;;;;;14.23;9.10;;;;;4.20;101913.00;;;;10448709;28;20202;-75
2022/10/12 00:24:39;;;;;;;14.10;8.50;;;;;4.10;101923.00;;;;10419070;28;20258;-75
2022/10/12 00:29:43;;;;;;;14.97;7.67;;;;;4.10;101917.00;;;;10429806;28;20195;-75
2022/10/12 00:34:44;;;;;;;11.90;6.67;;;;;4.00;101922.00;;;;10419185;28;20218;-75
2022/10/12 00:39:47;;;;;;;9.13;7.03;;;;;4.00;101915.00;;;;10415299;28;20197;-75
2022/10/12 00:44:50;;;;;;;11.57;7.17;;;;;3.90;101912.00;;;;10470840;28;20221;-75
2022/10/12 00:50:01;;;;;;;12.47;6.93;;;;;3.90;101917.00;;;;10413521;28;20198;-75
2022/10/12 00:55:03;;;;;;;14.20;7.83;;;;;3.90;101902.00;;;;10465416;28;20214;-75
2022/10/12 01:00:08;;;;;;;12.20;7.63;;;;;3.80;101911.00;;;;10434635;28;20288;-75
2022/10/12 01:05:10;;;;;;;12.70;7.80;;;;;3.80;101907.00;;;;10423342;28;20772;-77
2022/10/12 01:10:12;;;;;;;12.83;7.33;;;;;3.80;101911.00;;;;10443402;28;20209;-77
2022/10/12 01:15:13;;;;;;;12.97;7.60;;;;;3.70;101910.00;;;;10425464;28;20271;-77
2022/10/12 01:20:38;;;;;;;13.60;8.13;;;;;3.70;101910.00;;;;10444804;28;20675;-77
2022/10/12 01:25:39;;;;;;;18.43;8.67;;;;;3.70;101892.00;;;;10442999;28;20220;-76
2022/10/12 01:30:48;;;;;;;13.53;8.63;;;;;3.70;101902.00;;;;10419704;28;21120;-76
2022/10/12 01:36:54;;;;;;;24.47;10.63;;;;;3.60;101893.00;;;;10447535;28;20252;-76
2022/10/12 01:41:59;;;;;;;16.67;10.33;;;;;3.50;101894.00;;;;10370432;28;20293;-77
2022/10/12 01:47:01;;;;;;;17.43;9.80;;;;;3.50;101889.00;;;;10442993;28;20220;-76
2022/10/12 01:52:28;;;;;;;20.57;10.00;;;;;3.40;101894.00;;;;10462905;28;20228;-77
2022/10/12 01:57:46;;;;;;;12.80;9.73;;;;;3.40;101882.00;;;;10425799;28;20627;-77
2022/10/12 02:02:56;;;;;;;18.20;9.40;;;;;3.30;101875.00;;;;10435473;28;20201;-77
2022/10/12 02:08:35;;;;;;;18.67;9.40;;;;;3.30;101879.00;;;;10438570;28;20256;-77
2022/10/12 02:13:51;;;;;;;17.17;8.77;;;;;3.20;101882.00;;;;10421287;28;20216;-77
2022/10/12 02:18:54;;;;;;;11.17;7.97;;;;;3.20;101870.00;;;;10427757;28;20213;-77
2022/10/12 02:24:00;;;;;;;13.83;8.43;;;;;3.20;101859.00;;;;10454348;28;20222;-77
2022/10/12 02:29:05;;;;;;;18.23;8.53;;;;;3.20;101861.00;;;;10429818;28;20622;-77
2022/10/12 02:34:15;;;;;;;12.37;7.43;;;;;3.20;101861.00;;;;10430222;28;20202;-77
2022/10/12 02:39:24;;;;;;;11.07;7.40;;;;;3.10;101851.00;;;;10436355;28;20190;-77
2022/10/12 02:44:30;;;;;;;12.90;7.53;;;;;3.10;101840.00;;;;10457759;28;20218;-77
2022/10/12 02:49:34;;;;;;;10.83;7.67;;;;;3.10;101842.00;;;;10457773;28;20555;-77
2022/10/12 02:54:35;;;;;;;15.57;7.67;;;;;3.20;101831.00;;;;10464227;28;20194;-77
2022/10/12 02:59:36;;;;;;;17.57;9.10;;;;;3.20;101833.00;;;;10443718;28;20219;-77
2022/10/12 03:04:38;;;;;;;12.87;9.07;;;;;3.30;101835.00;;;;10444346;28;20581;-77
2022/10/12 03:09:39;;;;;;;17.23;7.83;;;;;3.30;101830.00;;;;10473833;28;20205;-77
2022/10/12 03:14:40;;;;;;;11.23;7.30;;;;;3.30;101825.00;;;;10451775;28;20213;-77
2022/10/12 03:19:41;;;;;;;15.37;7.63;;;;;3.20;101829.00;;;;10418369;28;20323;-77
2022/10/12 03:24:42;;;;;;;11.50;6.77;;;;;3.20;101822.00;;;;10451573;28;20228;-77
2022/10/12 03:29:43;;;;;;;13.23;7.60;;;;;3.20;101823.00;;;;10469351;28;20848;-77
2022/10/12 03:34:44;;;;;;;14.07;7.97;;;;;3.20;101827.00;;;;10444427;28;20205;-77
2022/10/12 03:39:46;;;;;;;10.33;7.20;;;;;3.30;101827.00;;;;10425099;28;20222;-77
2022/10/12 03:44:47;;;;;;;15.67;7.90;;;;;3.30;101829.00;;;;10464112;28;20214;-77
2022/10/12 03:49:48;;;;;;;11.60;7.47;;;;;3.30;101829.00;;;;10447503;28;20249;-77
2022/10/12 03:54:49;;;;;;;13.63;7.77;;;;;3.40;101826.00;;;;10451155;28;20202;-77
2022/10/12 03:59:50;;;;;;;12.13;7.70;;;;;3.40;101824.00;;;;10446929;28;20224;-77
2022/10/12 04:04:51;;;;;;;12.40;7.67;;;;;3.30;101814.00;;;;10424868;28;20508;-77
2022/10/12 04:09:52;;;;;;;14.63;7.57;;;;;3.30;101814.00;;;;10448597;28;20291;-77
2022/10/12 04:14:54;;;;;;;15.10;8.40;;;;;3.20;101810.00;;;;10442612;28;20795;-77
2022/10/12 04:19:55;;;;;;;19.80;9.10;;;;;3.10;101825.00;;;;10444059;28;20221;-77
2022/10/12 04:24:56;;;;;;;13.87;8.53;;;;;3.10;101828.00;;;;10453292;28;20743;-77
2022/10/12 04:29:57;;;;;;;15.23;8.33;;;;;3.00;101826.00;;;;10451719;28;20202;-77
2022/10/12 04:34:58;;;;;;;13.10;8.13;;;;;3.00;101821.00;;;;10449488;28;20209;-77
2022/10/12 04:40:00;;;;;;;14.17;8.30;;;;;3.00;101822.00;;;;10401787;28;20198;-77
2022/10/12 04:45:01;;;;;;;14.13;7.40;;;;;3.00;101827.00;;;;10431668;28;20213;-77
2022/10/12 04:50:03;;;;;;;14.57;7.83;;;;;3.00;101829.00;;;;10441157;28;20242;-77
2022/10/12 04:55:05;;;;;;;18.13;8.67;;;;;3.00;101811.00;;;;10408128;28;20204;-77
2022/10/12 05:00:07;;;;;;;11.43;7.77;;;;;3.00;101818.00;;;;10456768;28;20208;-77
2022/10/12 05:05:08;;;;;;;20.57;7.77;;;;;3.00;101813.00;;;;10447097;28;20226;-77
2022/10/12 05:10:09;;;;;;;16.63;9.33;;;;;3.00;101804.00;;;;10440117;28;20217;-77
2022/10/12 05:15:10;;;;;;;17.80;9.77;;;;;3.00;101799.00;;;;10437648;28;20202;-77
2022/10/12 05:20:12;;;;;;;15.63;9.83;;;;;3.10;101793.00;;;;10471256;28;20375;-77
2022/10/12 05:25:13;;;;;;;18.37;9.63;;;;;3.10;101808.00;;;;10409709;28;20747;-77
2022/10/12 05:30:15;;;;;;;18.33;10.93;;;;;3.10;101788.00;;;;10455067;28;20198;-77
2022/10/12 05:35:16;;;;;;;19.23;10.70;;;;;3.00;101799.00;;;;10423377;28;20198;-77
2022/10/12 05:40:18;;;;;;;18.37;10.20;;;;;3.00;101798.00;;;;10424528;28;20232;-77
2022/10/12 05:45:19;;;;;;;22.20;9.40;;;;;3.00;101799.00;;;;10450944;28;20225;-77
2022/10/12 05:50:20;;;;;;;16.50;9.07;;;;;2.90;101793.00;;;;10428905;28;20867;-77
2022/10/12 05:55:21;;;;;;;18.67;10.30;;;;;3.00;101793.00;;;;10419669;28;20201;-77
2022/10/12 06:00:22;;;;;;;18.83;10.40;;;;;3.00;101797.00;;;;10410574;28;20198;-76
2022/10/12 06:05:24;;;;;;;22.63;10.20;;;;;3.00;101807.00;;;;10430706;28;20556;-77
2022/10/12 06:10:25;;;;;;;34.37;12.70;;;;;3.10;101790.00;;;;10431071;28;20190;-77
2022/10/12 06:15:30;;;;;;;24.30;11.10;;;;;3.10;101797.00;;;;10451436;28;20194;-77
2022/10/12 06:20:32;;;;;;;38.63;13.63;;;;;3.30;101796.00;;;;10412201;28;20448;-76
2022/10/12 06:25:33;;;;;;;120.93;22.93;;;;;3.60;101792.00;;;;10436212;28;20221;-76
2022/10/12 06:30:34;;;;;;;92.77;20.93;;;;;3.80;101798.00;;;;10427196;28;20205;-77
2022/10/12 06:35:36;;;;;;;33.27;14.67;;;;;4.00;101794.00;;;;10445519;28;20198;-77
2022/10/12 06:40:37;;;;;;;23.40;13.07;;;;;4.20;101804.00;;;;10438425;28;20474;-77
2022/10/12 06:45:39;;;;;;;36.10;14.90;;;;;4.50;101818.00;;;;10444174;28;20233;-77
2022/10/12 06:50:41;;;;;;;33.97;16.13;;;;;4.80;101809.00;;;;10451597;28;20220;-77
2022/10/12 06:55:42;;;;;;;26.50;14.73;;;;;5.10;101810.00;;;;10419345;28;20210;-77
2022/10/12 07:00:43;;;;;;;35.53;15.27;;;;;5.30;101801.00;;;;10440087;28;20199;-77
2022/10/12 07:05:44;;;;;;;25.13;14.13;;;;;5.40;101802.00;;;;10430750;28;20214;-76
2022/10/12 07:10:46;;;;;;;27.10;14.33;;;;;5.60;101800.00;;;;10425169;28;20222;-77
2022/10/12 07:15:50;;;;;;;24.50;13.23;;;;;5.70;101808.00;;;;10449029;28;20206;-77
2022/10/12 07:20:53;;;;;;;29.87;15.00;;;;;6.00;101793.00;;;;10448017;28;20232;-77
2022/10/12 07:25:54;;;;;;;27.43;15.53;;;;;6.30;101801.00;;;;10452305;28;20679;-77
2022/10/12 07:31:00;;;;;;;35.13;15.70;;;;;6.70;101794.00;;;;10448092;28;20198;-77
2022/10/12 07:36:02;;;;;;;28.90;16.53;;;;;7.10;101791.00;;;;10458899;28;20198;-77
2022/10/12 07:41:16;;;;;;;31.47;14.30;;;;;7.50;101805.00;;;;10419546;28;20210;-77
2022/10/12 07:46:17;;;;;;;31.70;15.23;;;;;7.90;101807.00;;;;10421236;28;20222;-77
2022/10/12 07:51:18;;;;;;;38.97;16.17;;;;;8.40;101819.00;;;;10433839;28;20569;-77
2022/10/12 07:56:19;;;;;;;28.20;13.77;;;;;8.70;101816.00;;;;10439213;28;20252;-77
2022/10/12 08:01:22;;;;;;;30.17;13.50;;;;;9.20;101822.00;;;;10478331;28;20206;-77
2022/10/12 08:06:27;;;;;;;26.30;12.27;;;;;9.50;101832.00;;;;10442394;28;20715;-77
2022/10/12 08:11:29;;;;;;;21.07;12.27;;;;;9.90;101831.00;;;;10420908;28;20194;-77
2022/10/12 08:16:30;;;;;;;23.70;10.67;;;;;10.20;101835.00;;;;10442959;28;20201;-77
2022/10/12 08:21:31;;;;;;;24.07;10.17;;;;;10.70;101836.00;;;;10400381;28;20277;-77
2022/10/12 08:26:33;;;;;;;18.07;9.70;;;;;11.40;101836.00;;;;10420772;28;20222;-78
2022/10/12 08:31:34;;;;;;;15.10;8.10;;;;;11.60;101852.00;;;;10451646;28;20205;-78
2022/10/12 08:36:36;;;;;;;12.93;7.73;;;;;11.70;101847.00;;;;10448656;28;20837;-78
2022/10/12 08:41:43;;;;;;;20.90;9.60;;;;;12.00;101838.00;;;;10424342;28;20594;-78
2022/10/12 08:46:45;;;;;;;40.17;11.00;;;;;12.20;101843.00;;;;10467308;28;20225;-77
2022/10/12 08:51:50;;;;;;;28.47;9.00;;;;;12.40;101844.00;;;;10448005;28;20203;-78
2022/10/12 08:56:53;;;;;;;20.40;8.97;;;;;12.40;101832.00;;;;10458093;28;20198;-77
2022/10/12 09:02:21;;;;;;;13.90;7.83;;;;;12.50;101841.00;;;;10441957;28;20268;-78
2022/10/12 09:07:27;;;;;;;16.67;8.33;;;;;12.30;101826.00;;;;10431010;28;20228;-77
2022/10/12 09:12:53;;;;;;;15.37;7.53;;;;;12.70;101830.00;;;;10448451;28;20205;-78
2022/10/12 09:17:57;;;;;;;23.33;7.77;;;;;13.20;101841.00;;;;10459479;28;20214;-78
2022/10/12 09:23:16;;;;;;;19.47;8.03;;;;;13.50;101840.00;;;;10466769;28;20220;-78
2022/10/12 09:28:36;;;;;;;15.07;7.77;;;;;13.80;101846.00;;;;10450696;28;20245;-77
2022/10/12 09:33:47;;;;;;;21.07;7.57;;;;;13.90;101836.00;;;;10444384;28;20198;-75
2022/10/12 09:38:49;;;;;;;17.60;7.77;;;;;14.30;101839.00;;;;10440643;28;20701;-74
2022/10/12 09:43:54;;;;;;;16.83;7.83;;;;;14.70;101832.00;;;;10404297;28;20199;-74
2022/10/12 09:48:57;;;;;;;18.33;7.50;;;;;15.00;101828.00;;;;10451094;28;20246;-74
2022/10/12 09:54:03;;;;;;;19.00;8.10;;;;;15.40;101808.00;;;;10442974;28;20275;-74
2022/10/12 09:59:26;;;;;;;18.17;7.80;;;;;15.10;101805.00;;;;10450100;28;20201;-74
2022/10/12 10:04:28;;;;;;;17.83;7.97;;;;;14.80;101809.00;;;;10434217;28;20233;-74
2022/10/12 10:09:31;;;;;;;12.30;7.60;;;;;15.00;101805.00;;;;10442383;28;20691;-73
2022/10/12 10:14:34;;;;;;;16.93;7.47;;;;;15.40;101776.00;;;;10464034;28;20645;-74
2022/10/12 10:19:35;;;;;;;13.43;6.60;;;;;15.70;101779.00;;;;10429280;28;20700;-74
2022/10/12 10:24:37;;;;;;;15.18;6.50;;;;;15.90;101777.00;;;;10441583;28;20268;-74
2022/10/12 10:29:41;;;;;;;12.07;5.22;;;;;16.50;101781.00;;;;10425745;28;20197;-74
2022/10/12 10:34:43;;;;;;;7.22;4.70;;;;;16.60;101778.00;;;;10463551;28;20210;-74
2022/10/12 10:39:48;;;;;;;11.68;4.97;;;;;17.20;101773.00;;;;10442429;28;20224;-74
2022/10/12 10:44:55;;;;;;;9.85;3.65;;;;;18.00;101766.00;;;;10449696;28;20209;-74
2022/10/12 10:49:59;;;;;;;7.53;3.75;;;;;18.80;101762.00;;;;10438515;28;20217;-74
2022/10/12 10:55:15;;;;;;;11.52;3.85;;;;;19.20;101758.00;;;;10458991;28;20240;-74
2022/10/12 11:00:19;;;;;;;11.52;3.85;;;;;19.70;101753.00;;;;10431968;28;20726;-74
2022/10/12 11:05:45;;;;;;;12.55;3.60;;;;;20.90;101750.00;;;;10445797;28;20623;-74
2022/10/12 11:10:51;;;;;;;7.78;3.45;;;;;20.70;101758.00;;;;10481667;28;20256;-74
2022/10/12 11:15:58;;;;;;;10.63;3.75;;;;;20.90;101752.00;;;;10455435;28;20872;-74
2022/10/12 11:21:28;;;;;;;10.48;3.58;;;;;21.30;101746.00;;;;10455635;28;20192;-74
2022/10/12 11:26:36;;;;;;;10.43;3.97;;;;;21.50;101746.00;;;;10408315;28;20218;-73
2022/10/12 11:31:43;;;;;;;6.38;3.13;;;;;20.70;101738.00;;;;10439676;28;20774;-73
2022/10/12 11:36:47;;;;;;;8.60;3.90;;;;;20.00;101739.00;;;;10470315;28;20835;-73
2022/10/12 11:42:14;;;;;;;7.93;4.18;;;;;19.30;101724.00;;;;10450965;28;20224;-74
2022/10/12 11:47:40;;;;;;;10.88;4.05;;;;;19.90;101712.00;;;;10460469;28;20579;-74
2022/10/12 11:52:46;;;;;;;8.65;3.53;;;;;20.30;101720.00;;;;10452956;28;20778;-74
2022/10/12 11:57:49;;;;;;;10.73;3.80;;;;;20.20;101719.00;;;;10425339;28;20297;-74
2022/10/12 12:02:58;;;;;;;9.93;4.00;;;;;21.40;101715.00;;;;10460283;28;20198;-74
2022/10/12 12:07:59;;;;;;;13.30;4.75;;;;;21.40;101710.00;;;;10444435;28;20221;-74
2022/10/12 12:13:13;;;;;;;8.68;4.00;;;;;20.90;101708.00;;;;10415400;28;20225;-74
2022/10/12 12:18:27;;;;;;;11.77;3.80;;;;;20.00;101717.00;;;;10472808;28;20720;-74
2022/10/12 12:23:38;;;;;;;10.15;4.40;;;;;19.50;101707.00;;;;10458186;28;20281;-74
2022/10/12 12:28:45;;;;;;;8.43;3.53;;;;;19.40;101691.00;;;;10449939;28;20622;-74
2022/10/12 12:33:50;;;;;;;12.55;4.25;;;;;19.40;101697.00;;;;10458523;28;20670;-73
2022/10/12 12:38:52;;;;;;;7.80;3.50;;;;;19.60;101694.00;;;;10446870;28;20198;-74
2022/10/12 12:43:58;;;;;;;11.63;3.65;;;;;19.50;101695.00;;;;10450458;28;20684;-74
2022/10/12 12:49:01;;;;;;;7.00;3.50;;;;;19.20;101694.00;;;;10462768;28;20202;-74
2022/10/12 12:54:14;;;;;;;9.02;3.33;;;;;19.30;101691.00;;;;10444201;28;20205;-74
2022/10/12 12:59:27;;;;;;;11.43;4.60;;;;;19.00;101683.00;;;;10427743;28;20225;-74
2022/10/12 13:04:40;;;;;;;9.43;3.17;;;;;19.30;101671.00;;;;10450288;28;20792;-74
2022/10/12 13:09:57;;;;;;;9.05;3.83;;;;;19.70;101670.00;;;;10449747;28;20198;-73
2022/10/12 13:15:06;;;;;;;5.60;3.75;;;;;19.70;101670.00;;;;10452525;28;20210;-73
2022/10/12 13:20:13;;;;;;;9.38;3.80;;;;;19.70;101675.00;;;;10459360;28;20198;-73
2022/10/12 13:25:28;;;;;;;10.55;3.70;;;;;19.50;101656.00;;;;10422301;28;20317;-73
2022/10/12 13:30:51;;;;;;;9.35;3.83;;;;;19.00;101653.00;;;;10443123;28;20209;-73
2022/10/12 13:35:57;;;;;;;7.63;3.40;;;;;19.10;101656.00;;;;10429432;28;20202;-73
2022/10/12 13:41:11;;;;;;;11.75;3.55;;;;;19.30;101656.00;;;;10426174;28;20229;-73
2022/10/12 13:46:44;;;;;;;9.68;3.60;;;;;19.20;101658.00;;;;10485553;28;20210;-74
2022/10/12 13:51:58;;;;;;;5.00;2.60;;;;;18.90;101649.00;;;;10444490;28;20205;-73
2022/10/12 13:57:02;;;;;;;12.27;3.72;;;;;19.00;101649.00;;;;10458939;28;20259;-73
2022/10/12 14:02:17;;;;;;;8.07;3.47;;;;;19.40;101638.00;;;;10440672;28;20213;-73
2022/10/12 14:07:26;;;;;;;7.20;2.83;;;;;18.80;101638.00;;;;10416216;28;20225;-73
2022/10/12 14:12:29;;;;;;;7.82;3.28;;;;;18.70;101631.00;;;;10454336;28;20202;-74
2022/10/12 14:17:30;;;;;;;8.02;3.10;;;;;18.40;101617.00;;;;10443960;28;20190;-74
2022/10/12 14:22:32;;;;;;;8.60;3.53;;;;;17.90;101623.00;;;;10447613;28;20190;-73
2022/10/12 14:27:37;;;;;;;6.65;3.35;;;;;17.50;101613.00;;;;10450350;28;20214;-73
2022/10/12 14:32:41;;;;;;;9.85;3.60;;;;;17.30;101601.00;;;;10450602;28;20209;-73
2022/10/12 14:37:42;;;;;;;10.95;3.83;;;;;17.20;101589.00;;;;10423078;28;20199;-73
2022/10/12 14:42:56;;;;;;;6.65;3.35;;;;;17.30;101582.00;;;;10463342;28;20193;-73
2022/10/12 14:48:00;;;;;;;10.05;4.50;;;;;17.60;101572.00;;;;10423667;28;20271;-73
2022/10/12 14:53:03;;;;;;;9.10;3.78;;;;;17.80;101559.00;;;;10445434;28;20556;-74
2022/10/12 14:58:08;;;;;;;8.95;3.70;;;;;17.90;101564.00;;;;10448008;28;20193;-73
2022/10/12 15:03:11;;;;;;;7.28;3.22;;;;;17.80;101571.00;;;;10416403;28;20711;-73
2022/10/12 15:08:12;;;;;;;9.88;3.83;;;;;17.50;101565.00;;;;10440674;28;20218;-73
2022/10/12 15:13:13;;;;;;;7.00;3.55;;;;;17.30;101572.00;;;;10445985;28;20830;-73
2022/10/12 15:18:15;;;;;;;9.77;3.72;;;;;17.20;101568.00;;;;10437938;28;20198;-73
2022/10/12 15:23:16;;;;;;;9.90;3.67;;;;;17.30;101570.00;;;;10428253;28;20202;-73
2022/10/12 15:28:19;;;;;;;11.18;3.85;;;;;17.20;101563.00;;;;10444178;28;20209;-74
2022/10/12 15:33:22;;;;;;;9.02;3.92;;;;;17.00;101564.00;;;;10449955;28;20791;-73
2022/10/12 15:38:23;;;;;;;6.95;3.60;;;;;16.80;101569.00;;;;10414139;28;20746;-74
2022/10/12 15:43:25;;;;;;;11.82;3.33;;;;;16.50;101566.00;;;;10447962;28;20564;-74
2022/10/12 15:48:27;;;;;;;9.40;3.17;;;;;16.10;101570.00;;;;10447290;28;20222;-74
2022/10/12 15:53:28;;;;;;;6.93;2.85;;;;;15.60;101564.00;;;;10435175;28;20278;-74
2022/10/12 15:58:30;;;;;;;12.00;3.42;;;;;15.30;101563.00;;;;10454908;28;20193;-74
2022/10/12 16:03:31;;;;;;;10.55;4.32;;;;;15.00;101561.00;;;;10471390;28;20676;-74
2022/10/12 16:08:33;;;;;;;21.88;7.43;;;;;14.60;101560.00;;;;10471512;28;20210;-74
2022/10/12 16:13:35;;;;;;;16.53;5.60;;;;;14.30;101567.00;;;;10465036;28;20201;-73
2022/10/12 16:18:44;;;;;;;15.87;4.70;;;;;14.10;101586.00;;;;10425566;28;20202;-74
2022/10/12 16:23:45;;;;;;;12.77;4.27;;;;;14.00;101583.00;;;;10458784;28;20201;-74
2022/10/12 16:28:46;;;;;;;13.00;3.90;;;;;13.70;101562.00;;;;10448545;28;20677;-74
2022/10/12 16:33:47;;;;;;;11.13;5.63;;;;;13.50;101555.00;;;;10466313;28;20224;-74
2022/10/12 16:38:48;;;;;;;12.13;4.00;;;;;13.40;101555.00;;;;10442814;28;20206;-74
2022/10/12 16:43:53;;;;;;;13.27;4.13;;;;;13.20;101555.00;;;;10454759;28;20297;-74
2022/10/12 16:48:54;;;;;;;11.47;3.83;;;;;13.00;101570.00;;;;10428691;28;20214;-74
2022/10/12 16:53:55;;;;;;;16.63;4.30;;;;;12.70;101576.00;;;;10432822;28;20206;-74
2022/10/12 16:58:57;;;;;;;10.80;4.23;;;;;12.50;101569.00;;;;10454422;28;20555;-74
2022/10/12 17:04:00;;;;;;;12.60;4.27;;;;;12.30;101573.00;;;;10432523;28;20937;-74
2022/10/12 17:09:04;;;;;;;9.60;4.23;;;;;12.20;101571.00;;;;10449928;28;20287;-74
2022/10/12 17:14:07;;;;;;;10.10;4.43;;;;;12.10;101570.00;;;;10448141;28;20324;-74
2022/10/12 17:19:08;;;;;;;19.73;7.63;;;;;12.00;101567.00;;;;10447604;28;20455;-74
2022/10/12 17:24:11;;;;;;;13.30;6.57;;;;;12.00;101565.00;;;;10461808;28;20194;-74
2022/10/12 17:29:15;;;;;;;20.23;12.03;;;;;11.90;101574.00;;;;10441189;28;20202;-73
2022/10/12 17:34:23;;;;;;;12.23;7.07;;;;;11.80;101573.00;;;;10441693;28;20205;-74
2022/10/12 17:39:26;;;;;;;14.10;7.17;;;;;11.70;101575.00;;;;10421905;28;20224;-74
2022/10/12 17:44:27;;;;;;;11.93;6.60;;;;;11.60;101573.00;;;;10459723;28;20245;-74
2022/10/12 17:49:28;;;;;;;12.50;7.07;;;;;11.70;101582.00;;;;10467129;28;20206;-74
2022/10/12 17:54:31;;;;;;;13.43;7.03;;;;;11.80;101575.00;;;;10468732;28;20505;-74
2022/10/12 17:59:32;;;;;;;18.67;9.17;;;;;11.90;101581.00;;;;10424747;28;20260;-74
2022/10/12 18:04:34;;;;;;;19.17;9.67;;;;;12.00;101568.00;;;;10420313;28;20228;-73
2022/10/12 18:09:35;;;;;;;16.80;9.57;;;;;12.20;101569.00;;;;10442246;28;20236;-74
2022/10/12 18:14:36;;;;;;;18.57;9.40;;;;;12.20;101560.00;;;;10449523;28;20201;-74
2022/10/12 18:19:38;;;;;;;19.20;10.60;;;;;12.30;101543.00;;;;10446366;28;20206;-74
2022/10/12 18:24:39;;;;;;;18.67;9.63;;;;;12.30;101552.00;;;;10448102;28;20255;-74
2022/10/12 18:29:41;;;;;;;15.07;9.47;;;;;12.30;101553.00;;;;10426379;28;20871;-74
2022/10/12 18:34:43;;;;;;;13.70;8.03;;;;;12.30;101557.00;;;;10442124;28;20627;-74
2022/10/12 18:39:44;;;;;;;18.77;9.30;;;;;12.40;101553.00;;;;10443299;28;20623;-74
2022/10/12 18:44:45;;;;;;;14.43;8.73;;;;;12.40;101558.00;;;;10449571;28;20634;-74
2022/10/12 18:49:49;;;;;;;15.67;7.70;;;;;12.40;101563.00;;;;10436694;28;20202;-74
2022/10/12 18:54:50;;;;;;;18.83;8.90;;;;;12.40;101554.00;;;;10427506;28;20872;-74
2022/10/12 18:59:53;;;;;;;15.13;8.83;;;;;12.40;101546.00;;;;10451193;28;20196;-74
2022/10/12 19:04:54;;;;;;;18.13;9.17;;;;;12.30;101546.00;;;;10467970;28;20213;-74
2022/10/12 19:09:56;;;;;;;14.37;8.97;;;;;12.20;101543.00;;;;10442668;28;20198;-74
2022/10/12 19:14:57;;;;;;;17.53;9.40;;;;;12.10;101550.00;;;;10470450;28;20202;-74
2022/10/12 19:19:58;;;;;;;18.07;9.20;;;;;12.00;101532.00;;;;10433951;28;20343;-74
2022/10/12 19:24:59;;;;;;;18.00;9.60;;;;;11.90;101533.00;;;;10435126;28;20202;-74
2022/10/12 19:30:00;;;;;;;18.37;9.07;;;;;11.90;101534.00;;;;10418841;28;20561;-74
2022/10/12 19:35:02;;;;;;;22.53;10.00;;;;;11.80;101522.00;;;;10463972;28;20245;-74
2022/10/12 19:40:04;;;;;;;19.90;9.93;;;;;11.80;101526.00;;;;10469173;28;20411;-74
2022/10/12 19:45:09;;;;;;;19.03;9.20;;;;;11.80;101517.00;;;;10424564;28;20223;-74
2022/10/12 19:50:10;;;;;;;15.63;10.30;;;;;11.80;101526.00;;;;10451423;28;20233;-74
2022/10/12 19:55:11;;;;;;;13.93;9.03;;;;;11.80;101527.00;;;;10437751;28;20232;-74
2022/10/12 20:00:13;;;;;;;15.97;9.53;;;;;11.80;101517.00;;;;10429208;28;20202;-74
2022/10/12 20:05:14;;;;;;;17.17;9.20;;;;;11.80;101522.00;;;;10463275;28;20896;-74
2022/10/12 20:10:15;;;;;;;18.70;10.33;;;;;11.80;101520.00;;;;10429355;28;20209;-74
2022/10/12 20:15:17;;;;;;;16.47;8.43;;;;;11.80;101523.00;;;;10441313;28;20194;-74
2022/10/12 20:20:18;;;;;;;16.90;9.47;;;;;11.80;101519.00;;;;10424599;28;20778;-74
2022/10/12 20:25:19;;;;;;;14.03;8.93;;;;;11.70;101530.00;;;;10430581;28;20237;-74
2022/10/12 20:30:20;;;;;;;15.20;8.97;;;;;11.70;101527.00;;;;10455465;28;20723;-74
2022/10/12 20:35:21;;;;;;;16.83;9.77;;;;;11.60;101514.00;;;;10438079;28;20201;-74
2022/10/12 20:40:22;;;;;;;15.40;9.77;;;;;11.40;101510.00;;;;10430206;28;20198;-74
2022/10/12 20:45:24;;;;;;;16.00;9.37;;;;;11.40;101518.00;;;;10437475;28;20217;-74
2022/10/12 20:50:25;;;;;;;15.27;9.23;;;;;11.40;101510.00;;;;10437272;28;20212;-74
2022/10/12 20:55:26;;;;;;;18.90;9.37;;;;;11.30;101500.00;;;;10423013;28;20760;-74
2022/10/12 21:00:28;;;;;;;20.30;10.37;;;;;11.30;101513.00;;;;10461982;28;20204;-74
2022/10/12 21:05:29;;;;;;;20.20;10.20;;;;;11.20;101512.00;;;;10470999;28;20218;-74
2022/10/12 21:10:30;;;;;;;23.10;10.87;;;;;11.20;101505.00;;;;10469713;28;20199;-74
2022/10/12 21:15:31;;;;;;;17.97;10.63;;;;;11.20;101504.00;;;;10441725;28;20312;-74
2022/10/12 21:20:32;;;;;;;18.87;11.30;;;;;11.30;101503.00;;;;10417191;28;20228;-74
2022/10/12 21:25:33;;;;;;;23.80;10.43;;;;;11.40;101513.00;;;;10451979;28;20241;-74
2022/10/12 21:30:35;;;;;;;15.03;9.70;;;;;11.50;101507.00;;;;10418239;28;20330;-74
2022/10/12 21:35:37;;;;;;;18.47;10.17;;;;;11.60;101506.00;;;;10431770;28;20236;-74
2022/10/12 21:40:38;;;;;;;16.03;10.23;;;;;11.70;101505.00;;;;10441624;28;20247;-74
2022/10/12 21:45:39;;;;;;;20.13;9.33;;;;;11.70;101499.00;;;;10444648;28;20225;-74
2022/10/12 21:50:40;;;;;;;11.93;8.97;;;;;11.70;101497.00;;;;10441160;28;20573;-74
2022/10/12 21:55:41;;;;;;;13.50;9.10;;;;;11.70;101488.00;;;;10458388;28;20198;-74
2022/10/12 22:00:43;;;;;;;15.00;8.93;;;;;11.70;101481.00;;;;10403929;28;20700;-74
2022/10/12 22:05:44;;;;;;;18.07;8.63;;;;;11.80;101485.00;;;;10417186;28;20234;-74
2022/10/12 22:10:46;;;;;;;16.60;9.23;;;;;11.80;101476.00;;;;10426887;28;20202;-74
2022/10/12 22:15:59;;;;;;;15.80;9.53;;;;;11.90;101471.00;;;;10468533;28;20231;-74
2022/10/12 22:21:09;;;;;;;13.60;8.30;;;;;12.00;101475.00;;;;10439039;28;20256;-74
2022/10/12 22:26:14;;;;;;;17.40;8.17;;;;;12.00;101476.00;;;;10448114;28;20229;-74
2022/10/12 22:31:26;;;;;;;15.90;7.87;;;;;12.10;101474.00;;;;10418516;28;20228;-74
2022/10/12 22:36:28;;;;;;;12.77;7.60;;;;;12.10;101479.00;;;;10455417;28;20193;-74
2022/10/12 22:41:29;;;;;;;16.07;7.37;;;;;12.10;101469.00;;;;10396781;28;20206;-74
2022/10/12 22:46:30;;;;;;;16.27;7.70;;;;;12.20;101458.00;;;;10438353;28;20217;-74
2022/10/12 22:51:34;;;;;;;16.47;7.30;;;;;12.20;101459.00;;;;10421903;28;20223;-74
2022/10/12 22:56:35;;;;;;;11.43;6.50;;;;;12.20;101466.00;;;;10430830;28;20730;-74
2022/10/12 23:01:36;;;;;;;12.47;7.17;;;;;12.20;101464.00;;;;10439489;28;20201;-74
2022/10/12 23:06:38;;;;;;;12.23;6.50;;;;;12.10;101467.00;;;;10430303;28;20234;-75
2022/10/12 23:11:39;;;;;;;10.20;5.70;;;;;12.20;101450.00;;;;10423520;28;20206;-74
2022/10/12 23:16:40;;;;;;;12.93;6.93;;;;;12.20;101443.00;;;;10462505;28;20199;-74
2022/10/12 23:21:41;;;;;;;14.00;7.13;;;;;12.10;101455.00;;;;10442033;28;20224;-74
2022/10/12 23:26:43;;;;;;;7.63;5.93;;;;;12.10;101449.00;;;;10456307;28;20466;-74
2022/10/12 23:31:44;;;;;;;9.10;6.07;;;;;12.10;101444.00;;;;10468969;28;20200;-74
2022/10/12 23:36:45;;;;;;;12.00;6.77;;;;;12.10;101455.00;;;;10456302;28;20225;-74
2022/10/12 23:41:49;;;;;;;17.77;6.23;;;;;12.10;101438.00;;;;10448735;28;20283;-74
2022/10/12 23:46:50;;;;;;;11.93;6.03;;;;;12.00;101430.00;;;;10449817;28;20213;-74
2022/10/12 23:51:51;;;;;;;16.67;6.33;;;;;12.10;101429.00;;;;10430668;28;20618;-74
2022/10/12 23:56:53;;;;;;;12.47;6.60;;;;;12.10;101427.00;;;;10441545;28;20201;-74
